Vaduz, Liechtenstein
Current Conditions -  °F | °C
As of 8:20 PM on Thursday 30 Oct 2014 (Local Time) from LSZR Reporting Station
Clear Clear  
Wind Chill: 45°   Ceiling: Unl
Heat Index: 45°   Visibility: 6mi
Dew Point: 43°   Wind: 3mph
Humidity: 93%   Direction: 190°S
Pressure: 30.3"   Gusts: NA
Location:  47.14°N, 9.53°E
Report Text: LSZR 301820Z 19003KT CAVOK 07/06 Q1026 NOSIG RMK N
Loading
Personal Weather Stations






























Interactive Weather Map
Tropical Storm Tracking
New forecast layout! Learn more

10-Day Weather Forecast

Advertisements
Track Severe Weather on mobile